Time;durP1;ratioP1;P1;durP2;ratioP2;P2;SDS_P1;SDS_P2;PMS_P1;PMS_P2;Temp;Humidity;BMP_temperature;BMP_pressure;BME280_temperature;BME280_humidity;BME280_pressure;Samples;Min_cycle;Max_cycle;Signal;HPM_P1;HPM_P2
2022/06/14 00:01:04;;;;;;;8.83;5.08;;;;;;;12.90;84.60;98866.30;1801817;79;25576;-60
2022/06/14 00:03:38;;;;;;;9.25;5.37;;;;;;;12.86;84.56;98865.33;1801639;79;25627;-60
2022/06/14 00:06:09;;;;;;;8.60;5.37;;;;;;;12.84;84.39;98868.96;1801810;79;26578;-60
2022/06/14 00:08:36;;;;;;;8.98;5.62;;;;;;;12.80;84.42;98866.63;1801497;79;25671;-58
2022/06/14 00:11:10;;;;;;;9.00;5.15;;;;;;;12.79;84.49;98874.09;1801439;79;27511;-60
2022/06/14 00:13:37;;;;;;;6.83;5.10;;;;;;;12.82;84.42;98875.93;1801958;79;25482;-61
2022/06/14 00:16:04;;;;;;;7.12;5.42;;;;;;;12.79;84.37;98875.46;1801865;79;25687;-58
2022/06/14 00:18:30;;;;;;;8.13;5.47;;;;;;;12.76;84.44;98883.53;1808890;79;25767;-61
2022/06/14 00:20:57;;;;;;;8.83;5.50;;;;;;;12.71;84.71;98883.13;1808451;79;25623;-60
2022/06/14 00:23:23;;;;;;;8.58;5.37;;;;;;;12.68;84.85;98879.64;1807162;79;27519;-60
2022/06/14 00:25:53;;;;;;;8.43;4.97;;;;;;;12.65;84.88;98887.16;1806775;79;25613;-60
2022/06/14 00:28:22;;;;;;;9.20;4.83;;;;;;;12.63;85.04;98879.80;1807324;79;25432;-61
2022/06/14 00:30:52;;;;;;;7.00;4.90;;;;;;;12.64;85.15;98877.31;1807148;79;25719;-59
2022/06/14 00:33:19;;;;;;;8.83;5.22;;;;;;;12.66;85.21;98881.90;1807360;79;25682;-60
2022/06/14 00:35:47;;;;;;;5.70;4.72;;;;;;;12.66;85.32;98877.77;1807384;79;27552;-60
2022/06/14 00:38:15;;;;;;;5.97;4.50;;;;;;;12.65;85.35;98885.23;1806738;79;25952;-60
2022/06/14 00:40:50;;;;;;;7.83;4.50;;;;;;;12.60;85.07;98880.44;1807242;79;25584;-58
2022/06/14 00:43:18;;;;;;;6.10;4.28;;;;;;;12.57;85.26;98876.95;1806884;79;25823;-60
2022/06/14 00:45:52;;;;;;;9.08;4.05;;;;;;;12.58;85.13;98880.76;1807582;79;25575;-61
2022/06/14 00:48:26;;;;;;;8.58;4.65;;;;;;;12.60;85.04;98878.50;1807339;79;26842;-60
2022/06/14 00:51:19;;;;;;;5.60;3.80;;;;;;;12.59;85.21;98884.33;1807091;79;25806;-60
2022/06/14 00:53:59;;;;;;;6.58;3.77;;;;;;;12.55;84.86;98891.02;1806281;79;25587;-60
2022/06/14 00:56:40;;;;;;;6.55;3.70;;;;;;;12.55;84.98;98893.22;1688375;84;25792;-59
2022/06/14 00:59:19;;;;;;;;;;;;;;;12.56;85.02;98895.41;1684518;85;25787;-60
2022/06/14 01:01:47;;;;;;;5.20;3.50;;;;;;;12.58;85.22;98897.25;1681822;85;28199;-56
2022/06/14 01:04:17;;;;;;;5.78;3.55;;;;;;;12.53;85.11;98896.84;1681735;85;25800;-56
2022/06/14 01:07:04;;;;;;;5.28;3.20;;;;;;;12.52;84.83;98894.44;1681869;85;25730;-60
2022/06/14 01:09:45;;;;;;;8.80;3.02;;;;;;;12.46;84.67;98894.34;1681554;85;25680;-61
2022/06/14 01:12:19;;;;;;;10.40;3.20;;;;;;;12.48;85.08;98898.94;1681943;85;25821;-60
2022/06/14 01:15:09;;;;;;;4.80;3.10;;;;;;;12.45;84.47;98902.33;1680786;85;27602;-60
2022/06/14 01:17:41;;;;;;;5.08;3.02;;;;;;;12.46;84.45;98908.09;1682652;85;26113;-60
2022/06/14 01:20:11;;;;;;;8.50;3.45;;;;;;;12.42;84.33;98903.23;1684060;85;25686;-60
2022/06/14 01:22:38;;;;;;;6.78;3.08;;;;;;;12.35;84.11;98908.95;1684175;85;25772;-58
2022/06/14 01:25:07;;;;;;;5.60;2.87;;;;;;;12.23;83.90;98904.86;1683950;85;25765;-60
2022/06/14 01:27:36;;;;;;;5.20;2.85;;;;;;;12.17;84.00;98910.26;1683967;85;27480;-60
2022/06/14 01:30:17;;;;;;;7.47;2.90;;;;;;;12.09;84.11;98903.60;1683869;85;25926;-60
2022/06/14 01:32:51;;;;;;;9.58;2.85;;;;;;;12.05;83.83;98908.09;1698064;79;25650;-60
2022/06/14 01:35:21;;;;;;;7.60;3.00;;;;;;;12.00;83.69;98911.78;1812551;79;25918;-60
2022/06/14 01:37:51;;;;;;;5.20;2.90;;;;;;;11.98;83.77;98915.44;1812940;79;25580;-60
2022/06/14 01:40:21;;;;;;;6.97;3.17;;;;;;;11.96;83.48;98920.42;1812890;79;33017;-60
2022/06/14 01:43:02;;;;;;;8.45;3.17;;;;;;;11.89;83.32;98919.49;1812444;79;25634;-60
2022/06/14 01:45:47;;;;;;;;;;;;;;;11.85;83.30;98918.52;1752020;79;25853;-57
2022/06/14 01:48:52;;;;;;;6.55;2.80;;;;;;;11.81;83.43;98918.91;1811616;79;26634;-56
2022/06/14 01:54:34;;;;;;;5.60;2.52;;;;;;;11.76;83.36;98920.41;1812483;79;26563;-59
2022/06/14 01:57:15;;;;;;;6.17;2.75;;;;;;;11.70;83.27;98927.15;1811903;79;26137;-61
2022/06/14 01:59:52;;;;;;;9.15;2.90;;;;;;;11.58;83.29;98927.73;1784803;79;26441;-60
2022/06/14 02:02:32;;;;;;;6.55;3.12;;;;;;;11.45;83.40;98933.56;1804747;79;26723;-57
2022/06/14 02:05:06;;;;;;;4.87;2.98;;;;;;;11.32;83.67;98929.20;1812090;79;25602;-61
2022/06/14 02:07:43;;;;;;;6.72;3.22;;;;;;;11.20;83.89;98928.36;1812931;79;27587;-57
2022/06/14 02:10:20;;;;;;;6.78;3.10;;;;;;;11.17;83.96;98932.55;1812360;79;25589;-60
2022/06/14 02:13:03;;;;;;;5.22;2.75;;;;;;;11.12;83.78;98931.86;1812358;79;25489;-61
2022/06/14 02:15:44;;;;;;;5.20;3.00;;;;;;;11.09;83.89;98936.59;1810880;79;26532;-57
2022/06/14 02:18:31;;;;;;;5.65;2.67;;;;;;;11.09;83.93;98946.20;1807259;79;25428;-60
2022/06/14 02:21:20;;;;;;;5.83;3.05;;;;;;;11.07;84.00;98949.25;1801920;79;27546;-60
2022/06/14 02:23:51;;;;;;;6.67;2.37;;;;;;;11.08;84.04;98954.19;1801648;79;25881;-60
2022/06/14 02:26:26;;;;;;;8.13;2.87;;;;;;;11.05;83.89;98961.08;1801687;79;25668;-60
2022/06/14 02:28:57;;;;;;;4.12;2.40;;;;;;;11.02;84.00;98953.47;1801469;79;25413;-59
2022/06/14 02:31:31;;;;;;;6.35;3.05;;;;;;;11.03;83.98;98959.23;1801738;79;25647;-60
2022/06/14 02:34:08;;;;;;;6.50;3.20;;;;;;;11.00;83.78;98961.21;1801711;79;28458;-60
2022/06/14 02:36:45;;;;;;;7.12;3.02;;;;;;;10.94;83.76;98963.81;1800669;79;25418;-60
2022/06/14 02:39:16;;;;;;;5.70;3.00;;;;;;;10.86;83.75;98965.36;1801835;79;25466;-60
2022/06/14 02:42:17;;;;;;;5.28;2.77;;;;;;;10.81;83.88;98971.76;1801733;79;25950;-60
2022/06/14 02:44:53;;;;;;;7.10;3.05;;;;;;;10.79;84.06;98976.18;1800497;79;25660;-59
2022/06/14 02:47:49;;;;;;;5.97;3.15;;;;;;;10.73;83.73;98977.95;1800602;79;27606;-58
2022/06/14 02:50:20;;;;;;;5.53;2.25;;;;;;;10.71;83.99;98989.22;1799637;79;25464;-57
2022/06/14 02:53:07;;;;;;;2.90;2.45;;;;;;;10.70;84.02;98983.50;1801829;79;25430;-58
2022/06/14 02:55:45;;;;;;;5.15;2.95;;;;;;;10.73;83.76;98983.44;1801648;79;25910;-60
2022/06/14 02:58:16;;;;;;;6.70;2.85;;;;;;;10.77;83.81;98994.06;1799990;79;25632;-61
2022/06/14 03:00:51;;;;;;;5.08;2.27;;;;;;;10.79;83.89;98994.00;1801799;79;26990;-58
2022/06/14 03:03:38;;;;;;;6.40;3.00;;;;;;;10.82;83.75;98993.14;1801982;79;25619;-57
2022/06/14 03:06:11;;;;;;;6.92;2.55;;;;;;;10.86;84.03;99000.45;1692731;83;25737;-60
2022/06/14 03:08:54;;;;;;;5.37;2.40;;;;;;;10.88;83.86;98995.45;1693402;84;26187;-59
2022/06/14 03:11:56;;;;;;;4.75;2.50;;;;;;;10.92;83.95;99001.14;1692786;84;25730;-60
2022/06/14 03:14:55;;;;;;;4.85;2.50;;;;;;;10.98;83.94;99004.58;1693288;84;28285;-57
2022/06/14 03:17:46;;;;;;;6.08;3.10;;;;;;;10.99;83.87;99005.64;1692635;83;25682;-61
2022/06/14 03:20:49;;;;;;;7.00;2.40;;;;;;;11.02;83.86;99000.91;1678450;85;25675;-58
2022/06/14 03:23:50;;;;;;;3.85;2.72;;;;;;;11.06;83.85;99009.89;1669487;85;25894;-60
2022/06/14 03:26:58;;;;;;;5.50;2.70;;;;;;;11.04;83.88;99012.39;1669628;85;25629;-60
2022/06/14 03:29:46;;;;;;;6.47;3.15;;;;;;;11.11;83.56;99013.91;1669372;85;27589;-60
2022/06/14 03:32:43;;;;;;;4.42;2.58;;;;;;;11.17;83.43;99014.84;1668229;85;25730;-57
2022/06/14 03:35:27;;;;;;;6.35;2.40;;;;;;;11.32;83.54;99021.66;1656660;86;25478;-60
2022/06/14 03:37:57;;;;;;;8.58;2.47;;;;;;;11.41;83.51;99019.80;1648070;86;25833;-60
2022/06/14 03:40:24;;;;;;;3.15;2.15;;;;;;;11.57;83.50;99024.35;1667095;86;25522;-60
2022/06/14 03:42:52;;;;;;;7.00;2.80;;;;;;;11.70;82.91;99030.09;1696026;82;27827;-57
2022/06/14 03:45:23;;;;;;;4.55;2.30;;;;;;;11.82;83.10;99034.47;1739176;82;25717;-60
2022/06/14 03:47:50;;;;;;;6.50;2.98;;;;;;;11.95;83.22;99042.41;1739313;82;25696;-61
2022/06/14 03:50:27;;;;;;;7.08;2.55;;;;;;;12.05;82.91;99042.69;1739147;82;26710;-58
2022/06/14 03:53:30;;;;;;;4.55;2.70;;;;;;;12.20;82.83;99035.22;1739742;82;25677;-61
2022/06/14 03:56:32;;;;;;;7.62;2.60;;;;;;;12.32;82.82;99040.91;1741940;82;27458;-60
2022/06/14 03:59:10;;;;;;;5.50;2.95;;;;;;;12.42;82.07;99042.03;1746068;80;25892;-57
2022/06/14 04:01:44;;;;;;;5.35;2.70;;;;;;;12.50;81.74;99045.12;1772897;80;25888;-57
2022/06/14 04:04:30;;;;;;;6.03;2.92;;;;;;;12.59;81.41;99040.47;1771531;80;25854;-60
2022/06/14 04:07:11;;;;;;;4.33;2.95;;;;;;;12.67;80.67;99043.80;1777806;79;25403;-58
2022/06/14 04:09:54;;;;;;;4.67;2.58;;;;;;;12.74;81.95;99050.78;1769540;80;27430;-58
2022/06/14 04:12:46;;;;;;;5.53;2.62;;;;;;;12.86;81.62;99058.41;1774775;80;25574;-58
2022/06/14 04:15:33;;;;;;;5.87;2.33;;;;;;;13.03;81.91;99054.34;1772373;80;25483;-58
2022/06/14 04:21:07;;;;;;;5.55;2.40;;;;;;;13.37;80.56;99062.16;1796495;79;25599;-61
2022/06/14 04:23:38;;;;;;;6.87;2.30;;;;;;;13.42;80.21;99058.67;1796636;79;27376;-58
2022/06/14 04:26:19;;;;;;;6.95;2.75;;;;;;;13.49;79.82;99061.52;1796304;79;25736;-61
2022/06/14 04:28:53;;;;;;;6.08;2.37;;;;;;;13.43;79.08;99059.49;1796765;79;25592;-57
2022/06/14 04:31:46;;;;;;;5.60;2.47;;;;;;;13.32;78.04;99073.34;1796035;79;26581;-62
2022/06/14 04:34:21;;;;;;;6.55;2.80;;;;;;;13.29;79.18;99063.20;1796730;79;25583;-59
2022/06/14 04:37:08;;;;;;;6.65;2.40;;;;;;;13.40;80.92;99065.64;1793941;79;27690;-57
2022/06/14 04:39:45;;;;;;;3.83;2.12;;;;;;;13.48;79.46;99068.98;1796827;79;25595;-61
2022/06/14 04:42:16;;;;;;;6.03;1.98;;;;;;;13.61;79.10;99076.03;1796951;79;25589;-62
2022/06/14 04:44:56;;;;;;;3.75;2.05;;;;;;;13.70;78.36;99069.17;1796238;79;26052;-57
2022/06/14 04:47:33;;;;;;;5.50;2.02;;;;;;;13.80;78.52;99068.28;1708678;83;25471;-62
2022/06/14 04:50:17;;;;;;;5.17;2.08;;;;;;;14.03;78.84;99069.46;1707998;84;27385;-62
2022/06/14 04:52:55;;;;;;;4.55;1.92;;;;;;;14.14;77.89;99066.35;1708340;84;25629;-59
2022/06/14 04:55:32;;;;;;;4.05;1.90;;;;;;;14.25;77.04;99075.88;1716216;83;25668;-62
2022/06/14 04:58:10;;;;;;;5.05;1.77;;;;;;;14.29;75.31;99074.10;1715876;83;27813;-57
2022/06/14 05:00:50;;;;;;;5.12;1.90;;;;;;;14.40;76.95;99070.98;1713894;83;25469;-62
2022/06/14 05:03:40;;;;;;;2.17;1.90;;;;;;;14.52;75.31;99077.19;1708621;84;27458;-62
2022/06/14 05:06:18;;;;;;;2.83;1.85;;;;;;;14.67;77.24;99075.27;1702350;84;25761;-62
2022/06/14 05:08:58;;;;;;;5.45;2.02;;;;;;;14.67;75.79;99076.64;1708317;84;25560;-57
2022/06/14 05:11:42;;;;;;;4.08;2.00;;;;;;;14.83;75.20;99075.30;1688099;84;26555;-57
2022/06/14 05:14:34;;;;;;;3.62;1.90;;;;;;;14.85;71.74;99068.30;1695803;84;25772;-58
2022/06/14 05:17:35;;;;;;;5.15;1.80;;;;;;;14.81;72.06;99074.25;1708214;84;27391;-60
2022/06/14 05:20:13;;;;;;;5.90;1.65;;;;;;;14.89;73.58;99075.36;1660025;85;25704;-57
2022/06/14 05:22:51;;;;;;;4.25;1.50;;;;;;;15.03;71.92;99070.39;1626622;86;25712;-59
2022/06/14 05:25:18;;;;;;;2.60;1.37;;;;;;;15.14;73.69;99072.78;1695403;84;25908;-62
2022/06/14 05:28:02;;;;;;;4.90;1.80;;;;;;;15.35;69.36;99074.75;1705703;84;25495;-63
2022/06/14 05:30:42;;;;;;;4.78;1.90;;;;;;;15.35;69.36;99074.75;1705929;84;27446;-62
2022/06/14 05:33:30;;;;;;;3.20;1.60;;;;;;;15.43;69.02;99077.44;1705749;84;29926;-57
2022/06/14 05:36:05;;;;;;;2.25;1.60;;;;;;;15.59;70.50;99069.94;1705505;84;25482;-62
2022/06/14 05:38:55;;;;;;;2.95;1.67;;;;;;;15.63;70.69;99072.84;1705114;84;27767;-59
2022/06/14 05:41:39;;;;;;;4.87;1.60;;;;;;;15.66;69.21;99072.17;1705971;84;25647;-57
2022/06/14 05:44:20;;;;;;;2.47;1.40;;;;;;;15.79;69.99;99071.64;1705091;84;27482;-57
2022/06/14 05:46:52;;;;;;;3.52;1.55;;;;;;;15.93;69.90;99080.46;1706047;84;25856;-62
2022/06/14 05:49:24;;;;;;;5.58;1.90;;;;;;;16.01;68.82;99076.00;1704589;84;25804;-61
2022/06/14 05:52:05;;;;;;;2.77;1.45;;;;;;;16.28;66.29;99077.94;1764195;80;26534;-63
2022/06/14 05:54:57;;;;;;;1.82;1.40;;;;;;;16.28;66.29;99077.94;1768754;80;25766;-63
2022/06/14 05:57:39;;;;;;;3.15;1.50;;;;;;;16.28;68.54;99077.13;1772640;81;27636;-57
2022/06/14 06:00:29;;;;;;;4.25;1.98;;;;;;;16.43;68.42;99081.19;1772912;80;25893;-57
2022/06/14 06:03:05;;;;;;;;;;;;;;;16.65;68.53;99086.06;1775143;81;25607;-62
2022/06/14 06:05:45;;;;;;;2.20;1.40;;;;;;;16.65;67.05;99084.11;1772605;81;27224;-60
2022/06/14 06:08:32;;;;;;;4.90;1.50;;;;;;;16.73;67.19;99085.73;1773101;80;25579;-60
2022/06/14 06:11:23;;;;;;;2.92;1.52;;;;;;;16.87;67.20;99090.92;1772514;80;27381;-63
2022/06/14 06:14:05;;;;;;;3.67;1.85;;;;;;;17.05;66.19;99088.73;1772629;81;25689;-57
2022/06/14 06:16:56;;;;;;;4.80;1.70;;;;;;;17.08;66.37;99096.94;1772614;81;25669;-63
2022/06/14 06:19:27;;;;;;;5.90;1.57;;;;;;;17.14;65.29;99091.40;1787828;79;25466;-63
2022/06/14 06:22:05;;;;;;;3.42;1.67;;;;;;;17.24;65.42;99092.91;1803006;79;25478;-64
2022/06/14 06:24:48;;;;;;;3.75;1.70;;;;;;;17.40;64.30;99092.98;1804104;79;28660;-62
2022/06/14 06:27:15;;;;;;;2.37;1.70;;;;;;;17.47;65.57;99090.41;1804355;79;25576;-62
2022/06/14 06:30:07;;;;;;;4.35;1.65;;;;;;;17.53;65.28;99097.93;1804558;79;25837;-64
2022/06/14 06:32:34;;;;;;;4.10;1.60;;;;;;;17.57;62.66;99097.45;1804421;79;25776;-58
2022/06/14 06:35:04;;;;;;;4.15;1.90;;;;;;;17.78;65.05;99104.77;1804757;79;25419;-58
2022/06/14 06:37:42;;;;;;;4.75;1.77;;;;;;;17.83;63.24;99103.71;1804821;79;28204;-59
2022/06/14 06:40:19;;;;;;;3.17;1.60;;;;;;;17.76;60.12;99097.40;1803695;79;25624;-59
2022/06/14 06:42:54;;;;;;;3.33;1.80;;;;;;;17.79;59.16;99098.08;1804537;79;25711;-63
2022/06/14 06:45:31;;;;;;;4.15;1.40;;;;;;;17.86;59.98;99103.83;1796303;79;26578;-63
2022/06/14 06:48:09;;;;;;;1.95;1.47;;;;;;;18.01;60.94;99102.83;1804455;79;25647;-63
2022/06/14 06:51:01;;;;;;;3.58;1.70;;;;;;;18.35;60.98;99104.78;1804668;79;27471;-58
2022/06/14 06:53:42;;;;;;;3.30;1.57;;;;;;;18.52;60.16;99098.66;1745096;82;27202;-63
2022/06/14 06:56:22;;;;;;;1.95;1.50;;;;;;;18.67;60.08;99098.45;1744027;82;25499;-62
2022/06/14 06:58:57;;;;;;;;;;;;;;;18.69;56.70;99112.19;1717431;82;27802;-63
2022/06/14 07:01:28;;;;;;;3.35;1.57;;;;;;;18.74;60.19;99108.33;1745473;82;25821;-64
2022/06/14 07:07:22;;;;;;;2.05;1.50;;;;;;;19.22;59.34;99107.52;1742564;81;25619;-63
2022/06/14 07:10:06;;;;;;;5.85;1.70;;;;;;;19.48;55.56;99108.08;1659038;85;25881;-62
2022/06/14 07:12:42;;;;;;;1.90;1.20;;;;;;;19.58;55.95;99108.92;1719016;83;26425;-58
2022/06/14 07:15:34;;;;;;;2.92;1.40;;;;;;;19.62;56.76;99101.45;1736746;82;25778;-62
2022/06/14 07:18:18;;;;;;;2.20;1.22;;;;;;;19.78;57.15;99113.89;1722306;82;28420;-64
2022/06/14 07:21:08;;;;;;;2.08;1.30;;;;;;;20.04;57.70;99109.67;1714947;82;25729;-64
2022/06/14 07:23:49;;;;;;;2.65;1.30;;;;;;;20.40;54.91;99117.09;1715495;83;25660;-64
2022/06/14 07:26:29;;;;;;;2.45;1.12;;;;;;;20.63;55.72;99112.13;1715196;83;25778;-64
2022/06/14 07:29:37;;;;;;;2.12;1.30;;;;;;;20.77;54.46;99108.20;1772114;81;25653;-64
2022/06/14 07:32:27;;;;;;;3.83;1.20;;;;;;;20.92;54.34;99115.42;1772749;81;27850;-64
2022/06/14 07:34:55;;;;;;;1.65;1.30;;;;;;;21.05;54.02;99111.28;1772845;81;25587;-61
2022/06/14 07:37:47;;;;;;;1.82;1.40;;;;;;;20.73;52.19;99112.92;1772636;81;25581;-64
2022/06/14 07:40:38;;;;;;;1.82;1.25;;;;;;;20.52;52.70;99116.92;1760077;80;25638;-64
2022/06/14 07:43:13;;;;;;;2.52;1.30;;;;;;;20.30;54.29;99117.13;1754405;81;25419;-65
2022/06/14 07:45:45;;;;;;;1.72;1.02;;;;;;;20.57;55.50;99115.81;1771250;80;27780;-64
2022/06/14 07:48:28;;;;;;;1.37;0.93;;;;;;;21.05;54.70;99104.31;1772659;80;25720;-59
2022/06/14 07:51:09;;;;;;;1.10;0.90;;;;;;;21.34;52.83;99110.09;1772611;80;25412;-60
2022/06/14 07:53:40;;;;;;;1.62;0.90;;;;;;;21.46;52.49;99116.02;1772724;81;25812;-59
2022/06/14 07:56:18;;;;;;;2.75;0.90;;;;;;;21.23;50.92;99113.53;1772684;81;25470;-58
2022/06/14 07:59:02;;;;;;;1.07;0.80;;;;;;;20.96;52.30;99119.67;1772846;80;27424;-64
2022/06/14 08:01:36;;;;;;;2.08;0.70;;;;;;;20.85;53.58;99116.67;1754344;81;25407;-64
2022/06/14 08:04:17;;;;;;;1.50;0.80;;;;;;;20.74;52.54;99114.52;1772108;80;25644;-64
2022/06/14 08:06:48;;;;;;;1.87;0.80;;;;;;;20.56;52.47;99112.82;1772798;80;25895;-64
2022/06/14 08:09:23;;;;;;;1.40;0.50;;;;;;;20.51;52.77;99108.36;1773006;80;25581;-64
2022/06/14 08:11:59;;;;;;;1.75;0.80;;;;;;;20.54;53.58;99116.55;1772504;81;26809;-59
2022/06/14 08:14:37;;;;;;;1.15;0.80;;;;;;;20.63;53.06;99111.55;1772886;80;25420;-64
2022/06/14 08:17:08;;;;;;;1.67;0.65;;;;;;;20.89;52.72;99116.95;1769919;80;25729;-64
2022/06/14 08:19:42;;;;;;;1.32;0.82;;;;;;;21.02;51.62;99119.58;1782549;79;25686;-64
2022/06/14 08:22:17;;;;;;;1.02;0.78;;;;;;;21.06;52.19;99114.85;1801628;79;25421;-64
2022/06/14 08:24:48;;;;;;;1.25;0.65;;;;;;;20.85;51.14;99114.70;1801887;79;27981;-61
2022/06/14 08:27:26;;;;;;;3.35;0.88;;;;;;;20.98;49.98;99104.79;1801421;79;25646;-64
2022/06/14 08:29:57;;;;;;;2.17;0.82;;;;;;;21.21;49.07;99106.73;1801373;79;25611;-60
2022/06/14 08:32:52;;;;;;;2.27;0.82;;;;;;;21.43;50.39;99104.47;1801678;79;25626;-64
2022/06/14 08:35:36;;;;;;;2.12;0.80;;;;;;;21.69;49.21;99098.62;1801300;79;25584;-64
2022/06/14 08:38:17;;;;;;;1.42;0.82;;;;;;;22.11;50.08;99097.36;1802094;79;28057;-62
2022/06/14 08:41:10;;;;;;;1.80;0.75;;;;;;;22.60;47.69;99106.44;1801686;79;25816;-64
2022/06/14 08:43:47;;;;;;;2.30;0.90;;;;;;;22.87;48.13;99097.28;1801516;79;25759;-64
2022/06/14 08:46:34;;;;;;;1.00;0.70;;;;;;;23.10;47.25;99089.27;1801869;79;25702;-64
2022/06/14 08:49:40;;;;;;;1.50;0.60;;;;;;;23.18;43.67;99097.92;1799352;79;25418;-57
2022/06/14 08:52:18;;;;;;;1.72;0.80;;;;;;;23.14;44.71;99097.69;1787848;79;27445;-65
2022/06/14 08:54:52;;;;;;;1.65;1.00;;;;;;;22.81;44.97;99093.24;1797272;79;25676;-63
2022/06/14 08:57:39;;;;;;;2.98;1.15;;;;;;;22.42;46.36;99103.64;1801600;79;25603;-63
2022/06/14 09:00:37;;;;;;;2.37;0.68;;;;;;;22.29;47.02;99104.52;1801711;79;25730;-61
2022/06/14 09:03:21;;;;;;;1.62;0.70;;;;;;;22.19;46.55;99099.61;1801205;79;25651;-64
2022/06/14 09:06:10;;;;;;;2.10;0.78;;;;;;;21.80;45.78;99095.20;1801586;79;28072;-59
2022/06/14 09:09:33;;;;;;;1.42;0.68;;;;;;;21.50;46.87;99096.77;1801753;79;25644;-61
2022/06/14 09:12:10;;;;;;;1.30;0.70;;;;;;;21.33;47.57;99098.16;1800938;79;25434;-61
2022/06/14 09:15:09;;;;;;;3.10;0.90;;;;;;;21.30;47.67;99098.91;1800968;79;26909;-62
2022/06/14 09:18:04;;;;;;;2.70;1.07;;;;;;;21.41;48.12;99091.48;1801797;79;25410;-61
2022/06/14 09:20:38;;;;;;;1.90;0.72;;;;;;;21.74;48.05;99080.76;1801223;79;28060;-63
2022/06/14 09:23:41;;;;;;;1.40;0.80;;;;;;;21.88;47.09;99084.93;1801559;79;25549;-64
2022/06/14 09:26:31;;;;;;;2.62;1.02;;;;;;;21.95;47.12;99073.84;1801666;79;25434;-63
2022/06/14 09:29:38;;;;;;;2.40;0.80;;;;;;;22.10;47.82;99072.02;1801841;79;25972;-57
2022/06/14 09:32:26;;;;;;;1.98;0.80;;;;;;;22.19;45.27;99070.30;1801604;79;25675;-63
2022/06/14 09:35:22;;;;;;;2.40;0.70;;;;;;;22.22;44.90;99068.14;1801431;79;28330;-58
2022/06/14 09:38:06;;;;;;;2.00;1.00;;;;;;;22.22;46.12;99060.38;1800503;79;25617;-65
2022/06/14 09:41:11;;;;;;;1.42;0.80;;;;;;;22.09;47.05;99073.20;1801445;79;25423;-62
2022/06/14 09:43:54;;;;;;;1.67;0.70;;;;;;;21.94;45.95;99067.45;1801470;79;25588;-64
2022/06/14 09:47:01;;;;;;;1.55;0.78;;;;;;;21.73;46.87;99072.16;1801237;79;25466;-64
2022/06/14 09:50:00;;;;;;;4.83;0.90;;;;;;;21.45;45.59;99072.02;1801617;79;27644;-59
2022/06/14 09:53:06;;;;;;;1.65;0.90;;;;;;;21.25;46.75;99072.73;1801763;79;25763;-63
2022/06/14 09:56:01;;;;;;;2.60;1.42;;;;;;;21.13;46.79;99066.80;1801624;79;25458;-63
2022/06/14 09:58:44;;;;;;;1.75;0.90;;;;;;;21.17;47.62;99069.05;1801091;79;25756;-63
2022/06/14 10:01:48;;;;;;;2.45;0.90;;;;;;;21.11;48.09;99069.97;1800794;79;25598;-63
2022/06/14 10:04:35;;;;;;;1.02;0.80;;;;;;;21.13;48.08;99073.16;1801745;79;28259;-63
2022/06/14 10:07:30;;;;;;;2.52;0.98;;;;;;;21.16;49.00;99066.84;1801138;79;25675;-65
2022/06/14 10:10:23;;;;;;;1.70;0.72;;;;;;;21.46;48.75;99061.08;1801370;79;25629;-57
2022/06/14 10:13:04;;;;;;;2.95;0.80;;;;;;;21.91;47.36;99061.23;1801415;79;25660;-63
2022/06/14 10:16:06;;;;;;;2.27;0.70;;;;;;;22.14;46.98;99060.28;1739011;79;25690;-63
2022/06/14 10:18:52;;;;;;;0.90;0.60;;;;;;;22.28;45.02;99059.63;1679525;79;28264;-63
2022/06/14 10:21:27;;;;;;;1.25;0.45;;;;;;;22.28;44.92;99052.66;1741982;80;25632;-64
2022/06/14 10:24:02;;;;;;;0.68;0.60;;;;;;;22.33;44.96;99054.30;1774774;80;25631;-64
2022/06/14 10:29:56;;;;;;;1.52;0.55;;;;;;;22.77;44.20;99047.11;1775250;80;25585;-64
2022/06/14 10:32:43;;;;;;;1.35;0.70;;;;;;;22.92;42.76;99057.81;1773381;80;28771;-61
2022/06/14 10:35:14;;;;;;;1.30;0.60;;;;;;;22.90;43.17;99049.02;1765972;80;25660;-61
2022/06/14 10:38:11;;;;;;;3.30;0.80;;;;;;;22.89;40.45;99043.81;1766772;80;25526;-60
2022/06/14 10:41:07;;;;;;;1.52;0.65;;;;;;;22.74;38.59;99045.09;1765907;81;25711;-63
2022/06/14 10:43:56;;;;;;;1.37;0.72;;;;;;;22.80;40.29;99053.93;1765067;81;25655;-63
2022/06/14 10:46:30;;;;;;;1.35;0.75;;;;;;;22.90;40.40;99041.21;1765630;81;27336;-62
2022/06/14 10:49:51;;;;;;;1.35;0.60;;;;;;;23.27;39.91;99043.64;1743584;80;25692;-64
2022/06/14 10:52:54;;;;;;;;;;;;;;;23.69;40.87;99038.05;1775576;81;25601;-62
2022/06/14 10:55:50;;;;;;;1.67;0.62;;;;;;;24.10;39.80;99038.17;1772768;81;25915;-62
2022/06/14 10:58:51;;;;;;;2.52;0.80;;;;;;;24.25;38.14;99032.83;1755213;81;25480;-65
2022/06/14 11:01:47;;;;;;;1.45;0.60;;;;;;;24.37;36.98;99040.03;1771603;81;29521;-63
2022/06/14 11:04:51;;;;;;;3.25;0.88;;;;;;;24.51;37.69;99025.83;1772237;80;27184;-58
2022/06/14 11:07:44;;;;;;;1.17;0.50;;;;;;;24.10;35.79;99033.38;1772550;80;25406;-61
2022/06/14 11:10:34;;;;;;;1.72;0.75;;;;;;;23.73;39.42;99027.48;1771957;80;25806;-62
2022/06/14 11:13:14;;;;;;;2.08;0.70;;;;;;;23.76;39.31;99026.69;1773066;80;25388;-63
2022/06/14 11:16:05;;;;;;;1.67;0.60;;;;;;;23.91;40.55;99031.72;1771787;80;27561;-61
2022/06/14 11:18:51;;;;;;;2.05;0.68;;;;;;;23.77;38.87;99033.29;1730183;81;25875;-58
2022/06/14 11:21:41;;;;;;;1.32;0.62;;;;;;;24.21;40.32;99027.83;1794070;79;25668;-64
2022/06/14 11:24:22;;;;;;;2.17;0.60;;;;;;;24.49;37.76;99024.05;1806378;79;25697;-64
2022/06/14 11:27:03;;;;;;;2.27;0.70;;;;;;;24.62;38.02;99025.83;1803977;79;25632;-63
2022/06/14 11:29:46;;;;;;;2.15;0.80;;;;;;;24.82;39.35;99019.22;1804607;79;28236;-63
2022/06/14 11:32:42;;;;;;;1.07;0.55;;;;;;;24.93;37.28;99012.22;1803909;79;25493;-63
2022/06/14 11:35:26;;;;;;;1.07;0.50;;;;;;;24.79;34.76;99013.02;1762176;79;25506;-64
2022/06/14 11:38:06;;;;;;;1.52;0.80;;;;;;;24.69;35.36;99015.42;1803121;79;26081;-60
2022/06/14 11:40:37;;;;;;;1.82;0.80;;;;;;;25.12;35.99;99011.55;1786441;79;25442;-63
2022/06/14 11:43:26;;;;;;;1.60;0.60;;;;;;;25.30;36.67;99020.72;1804795;79;27438;-63
2022/06/14 11:46:25;;;;;;;2.73;0.80;;;;;;;25.08;36.58;99020.00;1804382;79;25396;-63
2022/06/14 11:49:09;;;;;;;3.08;0.80;;;;;;;24.80;34.70;99018.81;1765380;79;25812;-64
2022/06/14 11:52:24;;;;;;;1.77;0.57;;;;;;;25.22;36.35;99019.16;1804483;79;26432;-64
2022/06/14 11:55:13;;;;;;;1.15;0.60;;;;;;;25.61;34.96;99025.03;1804562;79;25493;-63
2022/06/14 11:58:12;;;;;;;2.05;0.82;;;;;;;25.75;35.00;99019.95;1803558;79;27480;-63
2022/06/14 12:01:14;;;;;;;1.60;0.70;;;;;;;25.92;35.37;99016.27;1804399;79;25584;-63
2022/06/14 12:03:57;;;;;;;2.05;0.50;;;;;;;25.79;34.95;99022.94;1804501;79;25473;-63
2022/06/14 12:06:44;;;;;;;1.77;0.60;;;;;;;26.29;34.87;99020.23;1802475;79;25906;-57
2022/06/14 12:09:31;;;;;;;1.42;0.70;;;;;;;26.45;34.16;99022.53;1804479;79;25641;-59
2022/06/14 12:12:34;;;;;;;3.40;0.70;;;;;;;25.95;34.46;99011.83;1803071;79;27455;-63
2022/06/14 12:15:18;;;;;;;0.98;0.60;;;;;;;25.63;34.60;99016.42;1804207;79;27160;-63
2022/06/14 12:17:52;;;;;;;1.75;0.80;;;;;;;25.42;35.10;99018.69;1785205;79;25606;-63
2022/06/14 12:20:22;;;;;;;1.32;0.75;;;;;;;25.24;35.39;99024.36;1803765;79;26009;-64
2022/06/14 12:23:00;;;;;;;0.98;0.40;;;;;;;24.84;34.99;99027.22;1806133;79;25418;-64
2022/06/14 12:29:04;;;;;;;2.40;0.60;;;;;;;24.70;36.18;99016.23;1801635;79;25655;-63
2022/06/14 12:31:48;;;;;;;0.90;0.50;;;;;;;25.23;35.29;99008.73;1801588;79;25599;-62
2022/06/14 12:34:44;;;;;;;1.77;0.50;;;;;;;25.92;34.76;99002.83;1801358;79;25734;-63
2022/06/14 12:37:34;;;;;;;1.62;0.70;;;;;;;26.01;32.89;99005.98;1802119;79;25643;-57
2022/06/14 12:40:18;;;;;;;1.37;0.70;;;;;;;25.60;34.14;99010.22;1801638;79;27403;-63
2022/06/14 12:43:17;;;;;;;1.77;0.80;;;;;;;25.64;33.80;99008.19;1745285;79;25961;-63
2022/06/14 12:45:54;;;;;;;1.17;0.68;;;;;;;26.14;33.99;99001.28;1801543;79;25705;-63
2022/06/14 12:48:38;;;;;;;4.53;0.62;;;;;;;26.60;31.55;99000.75;1800394;79;25757;-58
2022/06/14 12:51:26;;;;;;;2.10;0.60;;;;;;;27.09;32.07;98992.05;1801734;79;25691;-63
2022/06/14 12:54:31;;;;;;;1.47;0.70;;;;;;;27.65;33.07;98996.00;1801660;79;27639;-60
2022/06/14 12:57:18;;;;;;;1.40;0.60;;;;;;;27.76;32.49;98999.27;1801707;79;25569;-59
2022/06/14 13:00:12;;;;;;;1.67;0.70;;;;;;;27.68;31.83;98996.56;1801556;79;25585;-64
2022/06/14 13:02:54;;;;;;;2.60;0.70;;;;;;;27.99;32.26;98992.11;1779527;79;26418;-63